Time;durP1;ratioP1;P1;durP2;ratioP2;P2;SDS_P1;SDS_P2;PMS_P1;PMS_P2;Temp;Humidity;BMP_temperature;BMP_pressure;BME280_temperature;BME280_humidity;BME280_pressure;Samples;Min_cycle;Max_cycle;Signal;HPM_P1;HPM_P2
2022/11/08 00:03:37;;;;;;;6.57;2.42;;;15.10;57.60;;;;;;5028069;28;20520;-45
2022/11/08 00:14:20;;;;;;;6.35;1.90;;;15.00;57.60;;;;;;5029324;28;19921;-45
2022/11/08 00:16:47;;;;;;;6.70;1.80;;;15.00;57.40;;;;;;5020024;28;20080;-45
2022/11/08 00:19:14;;;;;;;5.55;1.63;;;15.00;57.40;;;;;;5022115;28;20057;-46
2022/11/08 00:21:41;;;;;;;6.32;1.60;;;14.90;57.50;;;;;;5021103;28;20413;-44
2022/11/08 00:24:09;;;;;;;7.13;1.63;;;14.90;57.60;;;;;;5024525;28;20512;-45
2022/11/08 00:26:37;;;;;;;4.53;1.55;;;14.90;57.70;;;;;;5018952;28;20057;-46
2022/11/08 00:29:05;;;;;;;5.25;1.90;;;14.90;57.90;;;;;;5019443;28;20527;-48
2022/11/08 00:31:32;;;;;;;5.82;1.30;;;14.80;58.00;;;;;;5018950;28;20061;-44
2022/11/08 00:33:59;;;;;;;3.72;1.20;;;14.80;58.10;;;;;;5022629;28;20057;-43
2022/11/08 00:36:26;;;;;;;4.30;1.35;;;14.80;58.20;;;;;;5023849;28;20061;-42
2022/11/08 00:38:54;;;;;;;6.32;1.88;;;14.80;58.30;;;;;;5019267;28;20045;-43
2022/11/08 00:41:21;;;;;;;5.40;1.40;;;14.80;58.30;;;;;;5020007;28;20053;-47
2022/11/08 00:43:49;;;;;;;9.93;1.80;;;14.80;58.40;;;;;;5019072;28;20045;-48
2022/11/08 00:46:17;;;;;;;6.63;1.48;;;14.80;58.30;;;;;;5020092;28;20060;-45
2022/11/08 00:48:44;;;;;;;4.43;1.20;;;14.80;58.30;;;;;;5018741;28;20061;-46
2022/11/08 00:51:12;;;;;;;6.28;1.40;;;14.80;58.20;;;;;;5020775;28;20581;-45
2022/11/08 00:53:40;;;;;;;5.78;1.20;;;14.80;58.20;;;;;;5023455;28;20053;-46
2022/11/08 00:56:10;;;;;;;3.60;1.13;;;14.80;58.10;;;;;;5020968;28;20049;-44
2022/11/08 00:58:38;;;;;;;4.40;1.27;;;14.80;58.10;;;;;;5018050;28;20041;-43
2022/11/08 01:01:14;;;;;;;5.13;1.70;;;14.80;58.20;;;;;;5016967;28;20068;-45
2022/11/08 01:03:41;;;;;;;8.15;1.60;;;14.70;58.20;;;;;;5022568;28;20050;-43
2022/11/08 01:06:10;;;;;;;8.13;1.77;;;14.70;58.30;;;;;;5020698;28;20062;-45
2022/11/08 01:08:38;;;;;;;7.30;1.80;;;14.70;58.40;;;;;;5019273;28;20050;-43
2022/11/08 01:11:07;;;;;;;5.82;1.75;;;14.70;58.90;;;;;;5014323;28;20057;-44
2022/11/08 01:13:35;;;;;;;2.80;1.35;;;14.70;58.60;;;;;;5021432;28;20060;-42
2022/11/08 01:16:06;;;;;;;3.92;1.42;;;14.70;58.60;;;;;;5018015;28;20409;-44
2022/11/08 01:18:35;;;;;;;6.13;1.33;;;14.70;58.60;;;;;;5020057;28;20795;-46
2022/11/08 01:21:04;;;;;;;6.15;2.00;;;14.70;58.60;;;;;;5019093;28;20061;-42
2022/11/08 01:23:32;;;;;;;13.05;2.10;;;14.70;58.60;;;;;;5023309;28;20064;-43
2022/11/08 01:26:03;;;;;;;3.95;1.45;;;14.70;58.80;;;;;;5023211;28;20141;-43
2022/11/08 01:28:30;;;;;;;6.18;1.40;;;14.70;58.80;;;;;;5019271;28;20049;-46
2022/11/08 01:30:57;;;;;;;5.88;1.55;;;14.70;58.80;;;;;;5019153;28;20056;-47
2022/11/08 01:33:24;;;;;;;5.80;1.27;;;14.70;58.90;;;;;;5020853;28;20061;-46
2022/11/08 01:35:53;;;;;;;5.25;1.50;;;14.70;58.90;;;;;;5022353;28;20061;-47
2022/11/08 01:38:20;;;;;;;3.05;1.17;;;14.70;59.00;;;;;;5020942;28;20061;-44
2022/11/08 01:40:49;;;;;;;5.50;1.27;;;14.80;59.00;;;;;;5018555;28;20389;-44
2022/11/08 01:43:36;;;;;;;7.93;1.80;;;14.80;59.10;;;;;;5021237;28;20524;-48
2022/11/08 01:46:27;;;;;;;7.00;1.50;;;14.80;59.10;;;;;;5018902;28;20737;-44
2022/11/08 01:49:00;;;;;;;6.72;1.63;;;14.80;59.10;;;;;;5018560;28;20041;-44
2022/11/08 01:51:33;;;;;;;5.03;1.60;;;14.80;59.10;;;;;;5016040;28;20057;-45
2022/11/08 01:54:04;;;;;;;5.53;1.60;;;14.80;59.10;;;;;;5019458;28;20057;-46
2022/11/08 01:56:31;;;;;;;7.50;1.90;;;14.80;59.00;;;;;;5021374;28;20053;-45
2022/11/08 01:59:01;;;;;;;5.90;1.67;;;14.80;58.90;;;;;;5018879;28;20045;-43
2022/11/08 02:01:29;;;;;;;5.97;1.85;;;14.90;59.00;;;;;;5013604;28;20053;-46
2022/11/08 02:03:57;;;;;;;5.68;1.80;;;14.90;58.90;;;;;;5018005;28;20417;-49
2022/11/08 02:06:25;;;;;;;4.18;1.25;;;14.90;59.00;;;;;;5022106;28;20054;-46
2022/11/08 02:08:54;;;;;;;5.07;1.60;;;14.80;58.90;;;;;;5018991;28;20049;-44
2022/11/08 02:11:22;;;;;;;6.10;1.60;;;14.90;59.30;;;;;;5021163;28;20065;-46
2022/11/08 02:13:49;;;;;;;4.53;1.65;;;14.80;59.00;;;;;;5021171;28;20484;-47
2022/11/08 02:16:16;;;;;;;6.30;2.03;;;14.80;58.90;;;;;;5018956;28;20065;-47
2022/11/08 02:18:46;;;;;;;6.70;1.88;;;14.80;59.00;;;;;;5019175;28;20056;-49
2022/11/08 02:21:19;;;;;;;9.63;2.28;;;14.80;59.00;;;;;;5012623;28;20057;-47
2022/11/08 02:23:49;;;;;;;6.47;1.65;;;14.80;59.00;;;;;;5021614;28;20061;-46
2022/11/08 02:26:18;;;;;;;9.82;2.10;;;14.80;59.00;;;;;;5019074;28;20683;-48
2022/11/08 02:28:48;;;;;;;8.10;1.88;;;14.80;59.00;;;;;;5021070;28;20049;-45
2022/11/08 02:31:17;;;;;;;5.38;1.70;;;14.80;58.90;;;;;;5018446;28;20057;-47
2022/11/08 02:33:45;;;;;;;3.78;1.60;;;14.80;58.90;;;;;;5019876;28;20907;-43
2022/11/08 02:36:17;;;;;;;4.07;1.63;;;14.80;58.90;;;;;;5024130;28;20064;-45
2022/11/08 02:38:48;;;;;;;5.47;1.73;;;14.80;59.00;;;;;;5007799;28;20053;-44
2022/11/08 02:41:16;;;;;;;8.98;2.08;;;14.80;58.90;;;;;;5015392;28;20061;-46
2022/11/08 02:43:43;;;;;;;8.40;1.77;;;14.70;58.90;;;;;;5024744;28;20058;-46
2022/11/08 02:46:10;;;;;;;4.07;1.67;;;14.70;58.90;;;;;;5021281;28;20068;-46
2022/11/08 02:48:37;;;;;;;4.25;1.75;;;14.70;58.90;;;;;;5013200;28;20092;-46
2022/11/08 02:51:05;;;;;;;5.03;1.80;;;14.70;58.90;;;;;;5014169;28;20057;-45
2022/11/08 02:53:33;;;;;;;6.22;1.65;;;14.70;58.90;;;;;;5024395;28;20363;-48
2022/11/08 02:56:01;;;;;;;3.92;1.70;;;14.70;58.90;;;;;;5022307;28;20053;-43
2022/11/08 02:58:29;;;;;;;4.80;1.60;;;14.70;58.90;;;;;;5021334;28;20050;-45
2022/11/08 03:00:56;;;;;;;9.10;1.60;;;14.70;58.80;;;;;;5018953;28;20405;-43
2022/11/08 03:03:26;;;;;;;5.47;1.40;;;14.70;58.80;;;;;;5019437;28;20497;-46
2022/11/08 03:05:56;;;;;;;6.10;1.60;;;14.70;58.80;;;;;;5017918;28;20409;-51
2022/11/08 03:08:24;;;;;;;3.72;1.58;;;14.70;58.80;;;;;;5021537;28;20056;-52
2022/11/08 03:10:51;;;;;;;3.22;1.98;;;14.70;58.80;;;;;;5019580;28;20045;-46
2022/11/08 03:13:19;;;;;;;5.25;1.85;;;14.70;58.70;;;;;;5017952;28;20055;-48
2022/11/08 03:15:47;;;;;;;9.10;1.92;;;14.70;58.70;;;;;;5022501;28;20773;-52
2022/11/08 03:18:14;;;;;;;6.97;1.90;;;14.70;58.70;;;;;;5023291;28;20436;-50
2022/11/08 03:20:41;;;;;;;8.52;1.58;;;14.70;58.60;;;;;;5023602;28;20053;-53
2022/11/08 03:23:08;;;;;;;5.43;1.75;;;14.70;58.60;;;;;;5022987;28;20527;-52
2022/11/08 03:25:36;;;;;;;4.82;1.52;;;14.70;58.60;;;;;;5022905;28;20057;-53
2022/11/08 03:28:05;;;;;;;5.28;1.90;;;14.60;58.50;;;;;;5022863;28;20504;-52
2022/11/08 03:30:34;;;;;;;5.40;1.90;;;14.60;58.40;;;;;;5023521;28;20057;-50
2022/11/08 03:33:02;;;;;;;4.85;1.92;;;14.60;58.40;;;;;;5021880;28;20065;-52
2022/11/08 03:35:29;;;;;;;5.35;1.92;;;14.60;58.40;;;;;;5025002;28;20060;-50
2022/11/08 03:37:57;;;;;;;6.32;2.67;;;14.60;58.40;;;;;;5017812;28;20058;-52
2022/11/08 03:40:25;;;;;;;5.68;1.88;;;14.50;58.30;;;;;;5024109;28;20049;-52
2022/11/08 03:42:53;;;;;;;5.30;1.80;;;14.50;58.30;;;;;;5024987;28;20049;-50
2022/11/08 03:45:20;;;;;;;4.90;2.13;;;14.50;58.30;;;;;;5022704;28;20053;-52
2022/11/08 03:47:48;;;;;;;4.47;2.17;;;14.50;58.30;;;;;;5021330;28;20632;-51
2022/11/08 03:50:16;;;;;;;5.15;1.92;;;14.40;58.30;;;;;;5014557;28;20041;-50
2022/11/08 03:52:45;;;;;;;5.93;2.05;;;14.40;58.30;;;;;;5015476;28;20057;-50
2022/11/08 03:55:13;;;;;;;4.38;1.90;;;14.40;58.30;;;;;;5021288;28;20060;-51
2022/11/08 03:57:41;;;;;;;5.20;2.17;;;14.40;58.30;;;;;;5012017;28;20470;-52
2022/11/08 04:00:11;;;;;;;7.38;2.47;;;14.30;58.20;;;;;;5023562;28;20511;-50
2022/11/08 04:02:38;;;;;;;10.88;3.10;;;14.30;58.30;;;;;;5021553;28;20493;-52
2022/11/08 04:05:08;;;;;;;5.43;2.53;;;14.30;58.20;;;;;;5021927;28;20385;-51
2022/11/08 04:07:35;;;;;;;9.32;2.75;;;14.30;58.20;;;;;;5023115;28;20080;-50
2022/11/08 04:10:03;;;;;;;7.22;2.50;;;14.20;58.30;;;;;;5020484;28;20064;-50
2022/11/08 04:15:20;;;;;;;4.47;2.33;;;14.20;58.30;;;;;;5025718;28;20060;-48
2022/11/08 04:23:18;;;;;;;7.18;2.40;;;14.10;58.30;;;;;;5027224;28;20339;-50
2022/11/08 04:25:45;;;;;;;4.82;2.45;;;14.10;58.30;;;;;;5022173;28;20425;-52
2022/11/08 04:28:12;;;;;;;7.30;2.72;;;14.10;58.30;;;;;;5024202;28;21420;-52
2022/11/08 04:30:40;;;;;;;11.65;2.72;;;14.10;58.40;;;;;;5021330;28;20457;-49
2022/11/08 04:33:07;;;;;;;7.28;3.15;;;14.10;58.40;;;;;;5022037;28;20064;-52
2022/11/08 04:35:35;;;;;;;5.63;2.58;;;14.00;58.30;;;;;;5023594;28;20064;-50
2022/11/08 04:38:03;;;;;;;5.85;2.80;;;14.00;58.40;;;;;;5018854;28;20049;-48
2022/11/08 04:40:31;;;;;;;7.63;2.60;;;14.00;58.40;;;;;;4998220;28;20069;-49
2022/11/08 04:42:58;;;;;;;5.07;2.67;;;14.00;58.40;;;;;;5007004;28;20132;-46
2022/11/08 04:45:25;;;;;;;6.05;2.85;;;14.00;58.40;;;;;;5011680;28;20058;-50
2022/11/08 04:47:53;;;;;;;9.95;3.00;;;14.00;58.40;;;;;;5011329;28;20148;-52
2022/11/08 04:50:21;;;;;;;5.70;2.70;;;14.00;58.40;;;;;;5012448;28;20427;-49
2022/11/08 04:52:53;;;;;;;3.40;2.60;;;13.90;58.30;;;;;;5014312;28;20068;-46
2022/11/08 04:55:20;;;;;;;4.90;2.25;;;13.90;58.40;;;;;;5016665;28;21643;-49
2022/11/08 04:57:48;;;;;;;5.10;2.60;;;13.90;58.40;;;;;;5016727;28;20060;-49
2022/11/08 05:00:17;;;;;;;4.13;2.45;;;13.90;58.40;;;;;;5015490;28;20062;-48
2022/11/08 05:02:44;;;;;;;6.00;2.20;;;13.90;58.40;;;;;;5019901;28;20049;-51
2022/11/08 05:05:12;;;;;;;8.13;2.70;;;13.90;58.40;;;;;;5017717;28;20421;-51
2022/11/08 05:07:39;;;;;;;5.20;2.17;;;13.90;58.40;;;;;;5021023;28;20057;-50
2022/11/08 05:10:08;;;;;;;5.85;3.10;;;13.80;58.40;;;;;;5020866;28;20054;-51
2022/11/08 05:12:35;;;;;;;12.38;5.18;;;13.80;58.40;;;;;;5023418;28;20056;-49
2022/11/08 05:15:03;;;;;;;8.93;3.40;;;13.80;58.40;;;;;;5017113;28;20049;-48
2022/11/08 05:17:30;;;;;;;5.90;2.92;;;13.80;58.40;;;;;;5012024;28;20049;-49
2022/11/08 05:25:28;;;;;;;;;;;13.80;58.40;;;;;;5028619;28;20537;-51
2022/11/08 05:27:55;;;;;;;6.82;2.38;;;13.80;58.40;;;;;;5021205;28;19932;-51
2022/11/08 05:30:22;;;;;;;13.70;5.97;;;13.80;58.20;;;;;;5015620;28;20065;-51
2022/11/08 05:32:51;;;;;;;23.40;9.70;;;13.70;58.20;;;;;;5015605;28;20057;-51
2022/11/08 05:35:20;;;;;;;15.65;6.50;;;13.70;58.20;;;;;;5018409;28;20061;-50
2022/11/08 05:37:49;;;;;;;7.80;3.67;;;13.70;58.30;;;;;;5019305;28;20386;-48
2022/11/08 05:40:16;;;;;;;6.25;3.45;;;13.70;58.30;;;;;;5014727;28;20398;-51
2022/11/08 05:42:44;;;;;;;4.88;3.10;;;13.60;58.80;;;;;;4996964;28;20409;-44
2022/11/08 05:45:12;;;;;;;4.78;2.38;;;13.60;58.30;;;;;;4992008;28;20053;-47
2022/11/08 05:47:43;;;;;;;5.20;2.85;;;13.60;58.40;;;;;;5021335;28;20456;-51
2022/11/08 05:50:10;;;;;;;5.93;2.78;;;13.60;58.40;;;;;;5012624;28;20486;-48
2022/11/08 05:52:37;;;;;;;4.55;2.50;;;13.60;58.40;;;;;;5003468;28;20089;-51
2022/11/08 05:55:05;;;;;;;9.25;2.75;;;13.50;58.30;;;;;;5006562;28;20524;-50
2022/11/08 05:57:33;;;;;;;7.90;3.20;;;13.50;58.40;;;;;;5000631;28;20597;-51
2022/11/08 06:00:02;;;;;;;11.73;6.25;;;13.50;58.40;;;;;;4997446;28;20486;-48
2022/11/08 06:02:31;;;;;;;7.50;3.60;;;13.50;58.40;;;;;;4999400;28;20061;-49
2022/11/08 06:04:59;;;;;;;6.45;2.85;;;13.50;58.50;;;;;;4998804;28;20514;-47
2022/11/08 06:07:26;;;;;;;6.57;2.88;;;13.40;58.40;;;;;;4995900;28;20053;-51
2022/11/08 06:09:54;;;;;;;7.20;3.30;;;13.40;58.50;;;;;;5005513;28;20053;-46
2022/11/08 06:12:21;;;;;;;6.75;2.95;;;13.40;58.40;;;;;;5013245;28;20050;-51
2022/11/08 06:14:48;;;;;;;5.43;3.00;;;13.40;58.50;;;;;;5012172;28;20064;-51
2022/11/08 06:17:17;;;;;;;4.28;2.50;;;13.40;58.50;;;;;;5003257;28;20057;-49
2022/11/08 06:19:44;;;;;;;28.35;12.85;;;13.30;58.50;;;;;;5020884;28;20049;-50
2022/11/08 06:22:11;;;;;;;12.57;4.68;;;13.30;59.00;;;;;;5016432;28;20054;-45
2022/11/08 06:24:39;;;;;;;7.28;3.22;;;13.30;58.50;;;;;;5005644;28;20053;-50
2022/11/08 06:27:06;;;;;;;8.48;3.50;;;13.30;58.50;;;;;;5022063;28;20053;-50
2022/11/08 06:29:33;;;;;;;5.35;2.65;;;13.30;58.50;;;;;;5013768;28;20057;-50
2022/11/08 06:32:00;;;;;;;8.60;2.85;;;13.30;58.50;;;;;;5016274;28;20065;-52
2022/11/08 06:34:29;;;;;;;5.22;2.47;;;13.20;58.50;;;;;;5021180;28;20057;-50
2022/11/08 06:36:58;;;;;;;3.67;2.25;;;13.30;58.60;;;;;;5022097;28;20064;-51
2022/11/08 06:39:25;;;;;;;4.28;1.90;;;13.30;58.60;;;;;;5018201;28;20053;-50
2022/11/08 06:41:52;;;;;;;4.63;2.10;;;13.30;58.60;;;;;;5015660;28;20052;-51
2022/11/08 06:44:19;;;;;;;6.13;2.53;;;13.20;58.50;;;;;;5000518;28;20069;-49
2022/11/08 06:46:47;;;;;;;5.75;2.42;;;13.30;58.60;;;;;;5010068;28;20081;-50
2022/11/08 06:49:14;;;;;;;5.45;2.15;;;13.20;58.60;;;;;;5020795;28;20064;-50
2022/11/08 06:51:43;;;;;;;6.22;2.00;;;13.30;58.60;;;;;;5017094;28;20057;-48
2022/11/08 06:54:10;;;;;;;4.40;2.55;;;13.30;58.70;;;;;;5012942;28;20061;-50
2022/11/08 06:56:37;;;;;;;6.82;1.95;;;13.30;59.20;;;;;;5016284;28;20054;-49
2022/11/08 06:59:04;;;;;;;4.53;1.90;;;13.30;58.70;;;;;;5004558;28;20516;-51
2022/11/08 07:01:31;;;;;;;3.10;1.65;;;13.30;58.70;;;;;;4994166;28;20060;-50
2022/11/08 07:03:59;;;;;;;4.50;1.50;;;13.20;58.60;;;;;;5009828;28;20072;-52
2022/11/08 07:06:26;;;;;;;8.93;2.53;;;13.20;58.60;;;;;;5023257;28;20060;-50
2022/11/08 07:08:54;;;;;;;6.70;1.55;;;13.30;58.70;;;;;;5006245;28;20062;-52
2022/11/08 07:11:22;;;;;;;3.35;1.50;;;13.30;58.70;;;;;;4998182;28;20766;-45
2022/11/08 07:13:49;;;;;;;5.47;1.67;;;13.30;58.70;;;;;;5007081;28;20128;-50
2022/11/08 07:16:16;;;;;;;4.82;2.00;;;13.30;58.70;;;;;;5016116;28;20065;-49
2022/11/08 07:18:43;;;;;;;3.75;1.52;;;13.30;58.70;;;;;;5019674;28;20057;-50
2022/11/08 07:21:11;;;;;;;5.60;1.70;;;13.30;58.70;;;;;;5017722;28;20050;-50
2022/11/08 07:23:38;;;;;;;4.65;1.70;;;13.40;58.80;;;;;;5006882;28;20061;-51
2022/11/08 07:26:07;;;;;;;2.17;1.30;;;13.40;58.80;;;;;;5024949;28;20061;-51
2022/11/08 07:28:35;;;;;;;7.72;1.60;;;13.40;58.80;;;;;;5018878;28;20060;-49
2022/11/08 07:31:04;;;;;;;5.70;1.52;;;13.40;58.70;;;;;;5017296;28;20045;-48
2022/11/08 07:33:32;;;;;;;4.25;1.67;;;13.40;58.70;;;;;;5022764;28;20107;-51
2022/11/08 07:36:00;;;;;;;3.75;1.40;;;13.40;58.60;;;;;;5009233;28;20501;-51
2022/11/08 07:38:27;;;;;;;4.22;1.70;;;13.40;58.60;;;;;;5018555;28;20061;-51
2022/11/08 07:40:58;;;;;;;3.90;1.67;;;13.50;58.60;;;;;;5011805;28;20054;-48
2022/11/08 07:43:28;;;;;;;6.47;2.20;;;13.50;58.50;;;;;;5016180;28;20061;-44
2022/11/08 07:45:56;;;;;;;3.65;1.58;;;13.50;58.50;;;;;;5015398;28;20061;-51
2022/11/08 07:48:24;;;;;;;4.15;1.70;;;13.50;58.50;;;;;;5023032;28;20065;-49
2022/11/08 07:50:51;;;;;;;4.60;1.65;;;13.50;58.50;;;;;;5002068;28;20050;-50
2022/11/08 07:53:18;;;;;;;2.72;1.48;;;13.60;58.50;;;;;;5014109;28;20494;-51
2022/11/08 07:55:46;;;;;;;3.05;1.63;;;13.60;58.50;;;;;;5006616;28;20053;-52
2022/11/08 07:58:15;;;;;;;4.85;2.20;;;13.60;58.50;;;;;;5022868;28;20053;-49
2022/11/08 08:00:45;;;;;;;3.72;1.30;;;13.60;58.50;;;;;;5008639;28;20057;-48
2022/11/08 08:03:14;;;;;;;4.68;1.60;;;13.60;58.50;;;;;;5024388;28;20065;-46
2022/11/08 08:05:43;;;;;;;5.85;1.67;;;13.70;58.50;;;;;;5012353;28;20079;-49
2022/11/08 08:08:11;;;;;;;4.22;1.40;;;13.70;58.50;;;;;;5009956;28;20058;-47
2022/11/08 08:10:39;;;;;;;3.33;1.50;;;13.70;58.50;;;;;;5007733;28;20046;-49
2022/11/08 08:13:06;;;;;;;5.53;1.80;;;13.80;58.60;;;;;;5016042;28;20524;-47
2022/11/08 08:15:34;;;;;;;3.28;1.60;;;13.80;58.50;;;;;;5010171;28;20531;-50
2022/11/08 08:18:05;;;;;;;3.78;1.67;;;13.80;58.50;;;;;;5017977;28;20056;-49
2022/11/08 08:20:33;;;;;;;3.67;1.10;;;13.80;58.40;;;;;;5019707;28;20060;-51
2022/11/08 08:23:00;;;;;;;5.15;1.30;;;13.90;58.40;;;;;;4999225;28;20050;-51
2022/11/08 08:25:29;;;;;;;3.95;1.42;;;13.90;58.40;;;;;;4999068;28;20489;-51
2022/11/08 08:27:58;;;;;;;4.45;1.80;;;14.00;58.40;;;;;;4998359;28;20054;-51
2022/11/08 08:30:26;;;;;;;3.15;1.40;;;14.00;58.50;;;;;;4999688;28;20061;-46
2022/11/08 08:33:03;;;;;;;6.00;1.40;;;14.00;58.40;;;;;;5014556;28;20049;-49
2022/11/08 08:35:30;;;;;;;7.47;1.58;;;14.00;58.40;;;;;;5023977;28;20068;-50
2022/11/08 08:37:59;;;;;;;3.72;1.60;;;14.10;58.40;;;;;;5009906;28;20700;-52
2022/11/08 08:40:26;;;;;;;4.22;1.55;;;14.10;58.40;;;;;;5019044;28;20065;-46
2022/11/08 08:42:54;;;;;;;6.47;1.50;;;14.20;58.40;;;;;;5020044;28;20046;-43
2022/11/08 08:45:21;;;;;;;4.75;1.75;;;14.20;58.30;;;;;;5019337;28;20076;-52
2022/11/08 08:47:52;;;;;;;6.97;1.52;;;14.30;58.30;;;;;;5019878;28;20486;-52
2022/11/08 08:50:21;;;;;;;4.10;1.60;;;14.30;58.20;;;;;;5016476;28;20064;-51
2022/11/08 08:52:49;;;;;;;2.78;1.40;;;14.30;58.10;;;;;;5019288;28;20057;-52
2022/11/08 08:55:16;;;;;;;4.18;1.90;;;14.40;58.20;;;;;;5010262;28;20053;-51
2022/11/08 08:57:45;;;;;;;3.08;1.60;;;14.40;58.10;;;;;;5011061;28;20049;-48
2022/11/08 09:00:14;;;;;;;3.88;1.77;;;14.50;57.90;;;;;;5003861;28;20054;-46
2022/11/08 09:02:42;;;;;;;4.15;1.20;;;14.50;57.80;;;;;;5011893;28;20053;-50
2022/11/08 09:05:10;;;;;;;5.30;1.52;;;14.60;57.70;;;;;;5018929;28;20519;-48
2022/11/08 09:07:39;;;;;;;4.68;1.52;;;14.60;57.60;;;;;;5023215;28;20056;-51
2022/11/08 09:10:08;;;;;;;2.60;1.35;;;14.60;57.50;;;;;;5019920;28;20057;-50
2022/11/08 09:12:36;;;;;;;2.17;1.23;;;14.70;57.40;;;;;;5016620;28;20068;-51
2022/11/08 09:15:04;;;;;;;7.05;1.40;;;14.70;57.30;;;;;;5018027;28;20057;-50
2022/11/08 09:17:31;;;;;;;7.10;2.22;;;14.80;57.10;;;;;;5013532;28;20386;-52
2022/11/08 09:19:59;;;;;;;10.05;1.40;;;14.80;57.10;;;;;;5023289;28;20057;-43
2022/11/08 09:22:26;;;;;;;3.58;1.35;;;14.80;57.50;;;;;;5009936;28;20056;-47
2022/11/08 09:24:54;;;;;;;1.95;1.20;;;14.90;56.90;;;;;;5020773;28;20053;-51
2022/11/08 09:27:22;;;;;;;2.90;1.40;;;14.90;56.90;;;;;;5022877;28;20061;-48
2022/11/08 09:29:49;;;;;;;5.60;1.13;;;15.00;56.90;;;;;;5018539;28;20080;-49
2022/11/08 09:32:16;;;;;;;3.90;1.25;;;15.00;56.70;;;;;;5014551;28;20056;-45
2022/11/08 09:34:44;;;;;;;6.68;2.45;;;15.10;56.50;;;;;;5016924;28;20060;-52
2022/11/08 09:37:13;;;;;;;7.93;3.20;;;15.10;56.20;;;;;;5007965;28;20080;-46
2022/11/08 09:39:40;;;;;;;5.22;2.17;;;15.10;56.10;;;;;;5018061;28;20515;-51
2022/11/08 09:42:33;;;;;;;5.10;1.92;;;15.20;56.00;;;;;;5012561;28;20053;-52
2022/11/08 09:45:35;;;;;;;5.28;1.77;;;15.20;55.70;;;;;;5016102;28;20065;-48
2022/11/08 09:48:05;;;;;;;6.07;1.67;;;15.30;55.70;;;;;;4993371;28;20064;-50
2022/11/08 09:50:38;;;;;;;3.75;1.55;;;15.30;55.50;;;;;;5010096;28;20049;-51
2022/11/08 09:53:14;;;;;;;4.80;1.92;;;15.30;55.30;;;;;;5012345;28;20057;-51
2022/11/08 09:55:45;;;;;;;2.85;1.55;;;15.30;55.30;;;;;;5000458;28;20061;-51
2022/11/08 09:58:22;;;;;;;4.15;1.50;;;15.30;55.20;;;;;;5019550;28;20045;-49
2022/11/08 10:04:15;;;;;;;7.10;1.23;;;15.40;54.90;;;;;;5024019;28;20516;-52
2022/11/08 10:06:56;;;;;;;3.58;1.67;;;15.40;55.10;;;;;;5019625;28;20065;-46
2022/11/08 10:09:40;;;;;;;3.88;1.27;;;15.40;54.90;;;;;;5013798;28;20064;-50
2022/11/08 10:12:17;;;;;;;3.13;1.30;;;15.40;55.00;;;;;;5005841;28;20060;-50
2022/11/08 10:15:02;;;;;;;2.88;1.30;;;15.40;54.70;;;;;;5019533;28;20049;-50
2022/11/08 10:17:57;;;;;;;2.65;1.13;;;15.40;54.60;;;;;;5007270;28;21640;-46
2022/11/08 10:20:29;;;;;;;;;;;15.40;54.50;;;;;;5009508;28;20065;-52
2022/11/08 10:23:04;;;;;;;3.33;1.45;;;15.50;54.80;;;;;;5002924;28;20308;-52
2022/11/08 10:25:38;;;;;;;2.28;1.25;;;15.50;54.60;;;;;;5022212;28;20060;-52
2022/11/08 10:28:06;;;;;;;;;;;15.50;54.50;;;;;;5011062;28;20058;-50
2022/11/08 10:30:38;;;;;;;1.75;1.10;;;15.50;54.70;;;;;;5013227;28;20178;-51
2022/11/08 10:33:15;;;;;;;2.85;1.17;;;15.50;54.60;;;;;;5010392;28;20053;-52
2022/11/08 10:35:47;;;;;;;6.43;1.42;;;15.50;54.90;;;;;;5009539;28;20058;-47
2022/11/08 10:38:19;;;;;;;3.17;1.70;;;15.50;54.40;;;;;;5022358;28;20068;-52
2022/11/08 10:40:56;;;;;;;4.70;1.40;;;15.40;54.40;;;;;;5011013;28;20065;-53
2022/11/08 10:43:33;;;;;;;6.68;1.48;;;15.50;54.90;;;;;;5022252;28;20061;-53
2022/11/08 10:46:02;;;;;;;4.13;1.73;;;15.50;54.20;;;;;;5011180;28;20053;-50
2022/11/08 10:48:32;;;;;;;4.05;1.40;;;15.40;54.20;;;;;;5025047;28;21267;-48
2022/11/08 10:50:59;;;;;;;4.85;1.40;;;15.50;54.20;;;;;;5012644;28;20054;-54
2022/11/08 10:53:29;;;;;;;4.20;1.67;;;15.50;54.20;;;;;;5022357;28;20052;-52
2022/11/08 10:56:00;;;;;;;5.47;1.80;;;15.50;54.20;;;;;;5019729;28;20482;-52
2022/11/08 10:58:36;;;;;;;3.17;1.20;;;15.50;54.10;;;;;;5015933;28;20057;-51
2022/11/08 11:01:14;;;;;;;3.50;1.35;;;15.50;54.10;;;;;;5015809;28;20057;-48
2022/11/08 11:03:41;;;;;;;3.08;1.30;;;15.50;53.90;;;;;;5026020;28;20056;-47
2022/11/08 11:06:22;;;;;;;2.00;1.13;;;15.50;53.80;;;;;;5009913;28;20409;-52
2022/11/08 11:08:51;;;;;;;3.05;1.40;;;15.50;53.80;;;;;;5018714;28;20053;-50
2022/11/08 11:11:24;;;;;;;4.95;1.55;;;15.50;53.90;;;;;;5016724;28;20061;-52
2022/11/08 11:14:11;;;;;;;4.07;1.60;;;15.50;53.80;;;;;;5023806;28;20497;-54
2022/11/08 11:16:51;;;;;;;3.05;1.60;;;15.50;53.90;;;;;;5009237;28;20061;-48
2022/11/08 11:19:19;;;;;;;3.90;1.30;;;15.50;53.80;;;;;;5025292;28;20502;-52
2022/11/08 11:21:52;;;;;;;5.70;1.58;;;15.50;53.90;;;;;;5013170;28;20502;-48
2022/11/08 11:24:21;;;;;;;2.92;1.15;;;15.50;53.80;;;;;;5011018;28;20623;-52
2022/11/08 11:26:58;;;;;;;4.10;1.40;;;15.60;54.00;;;;;;5021503;28;20057;-48
2022/11/08 11:29:28;;;;;;;2.80;1.40;;;15.60;54.00;;;;;;5019656;28;20056;-53
2022/11/08 11:31:58;;;;;;;3.35;1.50;;;15.60;53.90;;;;;;5020429;28;20053;-54
2022/11/08 11:34:35;;;;;;;3.22;1.35;;;15.60;53.80;;;;;;5022816;28;20053;-56
2022/11/08 11:37:12;;;;;;;3.38;1.40;;;15.60;53.60;;;;;;5019584;28;20057;-56
2022/11/08 11:39:44;;;;;;;3.17;1.35;;;15.60;53.60;;;;;;5017682;28;20498;-51
2022/11/08 11:42:17;;;;;;;7.68;1.50;;;15.60;53.60;;;;;;5019754;28;20061;-54
2022/11/08 11:44:57;;;;;;;6.40;2.35;;;15.60;53.60;;;;;;5015058;28;20061;-53
2022/11/08 11:47:31;;;;;;;4.05;1.50;;;15.60;53.40;;;;;;5019408;28;21722;-54
2022/11/08 11:50:10;;;;;;;3.08;1.30;;;15.60;53.40;;;;;;5008695;28;20391;-47
2022/11/08 11:52:37;;;;;;;4.75;1.40;;;15.60;53.30;;;;;;5013371;28;20057;-52
2022/11/08 11:55:05;;;;;;;2.70;1.08;;;15.60;53.30;;;;;;5017435;28;20061;-53
2022/11/08 11:57:41;;;;;;;2.38;1.33;;;15.70;53.30;;;;;;5013709;28;20068;-52
2022/11/08 12:00:10;;;;;;;2.95;1.25;;;15.70;53.30;;;;;;5011346;28;20054;-45
2022/11/08 12:03:07;;;;;;;7.47;1.42;;;15.70;53.30;;;;;;5012365;28;20049;-56
2022/11/08 12:05:45;;;;;;;5.45;1.52;;;15.70;53.20;;;;;;5010575;28;20064;-53
2022/11/08 12:08:30;;;;;;;4.15;1.17;;;15.70;53.20;;;;;;5001108;28;20058;-53
2022/11/08 12:11:34;;;;;;;6.25;1.70;;;15.70;53.30;;;;;;5004330;28;20457;-54
2022/11/08 12:14:14;;;;;;;3.60;1.45;;;15.80;53.10;;;;;;5017977;28;20045;-52
2022/11/08 12:16:48;;;;;;;3.13;1.40;;;15.80;53.30;;;;;;5009077;28;20054;-52
2022/11/08 12:19:26;;;;;;;;;;;15.80;53.30;;;;;;5005744;28;20061;-51
2022/11/08 12:22:00;;;;;;;4.65;1.40;;;15.90;53.30;;;;;;5002396;28;19932;-46
2022/11/08 12:24:41;;;;;;;5.07;1.30;;;15.90;53.10;;;;;;5010626;28;20405;-52
2022/11/08 12:27:20;;;;;;;2.58;1.63;;;15.90;53.00;;;;;;5010113;28;20053;-54
2022/11/08 12:29:58;;;;;;;3.10;1.38;;;15.90;53.00;;;;;;5021870;28;20088;-55
2022/11/08 12:32:42;;;;;;;6.72;1.73;;;15.90;52.90;;;;;;5004338;28;20501;-55
2022/11/08 12:35:31;;;;;;;5.50;2.42;;;15.90;52.80;;;;;;5020903;28;20060;-48
2022/11/08 12:38:12;;;;;;;2.75;1.33;;;16.00;52.90;;;;;;5010085;28;20053;-54
2022/11/08 12:40:48;;;;;;;3.42;1.75;;;16.00;52.90;;;;;;5022219;28;20489;-54
2022/11/08 12:43:27;;;;;;;3.15;1.40;;;16.00;52.90;;;;;;5023257;28;20420;-53
2022/11/08 12:46:04;;;;;;;4.60;1.30;;;16.00;53.00;;;;;;5021474;28;20449;-54
2022/11/08 12:48:48;;;;;;;3.17;1.27;;;16.10;53.10;;;;;;5024185;28;20061;-54
2022/11/08 12:51:23;;;;;;;6.77;1.37;;;16.10;52.90;;;;;;5013592;28;20050;-55
2022/11/08 12:54:08;;;;;;;4.78;1.60;;;16.20;53.10;;;;;;5014551;28;20056;-46
2022/11/08 12:56:41;;;;;;;4.15;1.75;;;16.20;53.10;;;;;;5012401;28;20049;-52
2022/11/08 12:59:18;;;;;;;6.70;1.30;;;16.20;53.10;;;;;;5023028;28;20497;-50
2022/11/08 13:01:46;;;;;;;5.10;1.20;;;16.20;52.90;;;;;;5022113;28;20068;-54
2022/11/08 13:04:44;;;;;;;5.22;1.67;;;16.20;52.90;;;;;;5023599;28;20049;-54
2022/11/08 13:07:20;;;;;;;4.45;1.70;;;16.30;52.90;;;;;;5014116;28;20065;-55
2022/11/08 13:09:53;;;;;;;5.43;1.55;;;16.30;52.80;;;;;;5023130;28;20068;-54
2022/11/08 13:12:30;;;;;;;6.70;1.55;;;16.30;52.80;;;;;;5011057;28;20084;-53
2022/11/08 13:15:00;;;;;;;5.35;1.83;;;16.40;52.90;;;;;;5023236;28;20049;-50
2022/11/08 13:17:29;;;;;;;4.22;1.73;;;16.40;53.00;;;;;;5017233;28;20104;-51
2022/11/08 13:20:03;;;;;;;4.25;1.50;;;16.40;52.90;;;;;;5013328;28;20045;-53
2022/11/08 13:23:00;;;;;;;3.72;1.40;;;16.40;53.10;;;;;;5021301;28;20061;-44
2022/11/08 13:25:42;;;;;;;4.03;1.30;;;16.40;53.00;;;;;;5020006;28;20053;-53
2022/11/08 13:28:39;;;;;;;3.28;1.50;;;16.40;52.90;;;;;;5021690;28;20497;-46
2022/11/08 13:31:26;;;;;;;3.63;1.40;;;16.50;52.90;;;;;;5018562;28;20045;-53
2022/11/08 13:34:15;;;;;;;5.43;1.70;;;16.50;53.00;;;;;;5020044;28;20424;-52